Time;durP1;ratioP1;P1;durP2;ratioP2;P2;SDS_P1;SDS_P2;PMS_P1;PMS_P2;Temp;Humidity;BMP_temperature;BMP_pressure;BME280_temperature;BME280_humidity;BME280_pressure;Samples;Min_cycle;Max_cycle;Signal;HPM_P1;HPM_P2
2022/08/29 00:01:39;;;;;;;;;;;18.10;85.70;;;-147.18;100.00;67318.16;4999431;28;19926;-80
2022/08/29 00:04:06;;;;;;;;;;;18.00;85.90;;;-147.18;100.00;67318.16;4993041;28;19922;-80
2022/08/29 00:06:33;;;;;;;;;;;18.00;86.20;;;-147.18;100.00;67318.16;4993439;28;20121;-80
2022/08/29 00:09:00;;;;;;;;;;;18.00;86.30;;;-147.18;100.00;67318.16;4995592;28;19922;-80
2022/08/29 00:11:27;;;;;;;;;;;18.00;86.20;;;-147.18;100.00;67318.16;5013439;28;19925;-80
2022/08/29 00:13:56;;;;;;;;;;;18.00;86.10;;;-147.18;100.00;67318.16;5008187;28;20549;-80
2022/08/29 00:16:23;;;;;;;;;;;18.00;86.50;;;-147.18;100.00;67318.16;4989642;28;20345;-80
2022/08/29 00:18:50;;;;;;;;;;;17.90;86.70;;;-147.18;100.00;67318.16;5000030;28;19922;-81
2022/08/29 00:21:17;;;;;;;;;;;17.90;87.00;;;-147.18;100.00;67318.16;5006757;28;19944;-80
2022/08/29 00:23:44;;;;;;;;;;;17.90;87.00;;;-147.18;100.00;67318.16;5005557;28;19963;-80
2022/08/29 00:26:12;;;;;;;;;;;17.90;87.00;;;-147.18;100.00;67318.16;4994476;28;20294;-80
2022/08/29 00:28:39;;;;;;;;;;;17.90;87.00;;;-147.18;100.00;67318.16;4996920;28;19955;-80
2022/08/29 00:31:07;;;;;;;;;;;17.90;87.10;;;-147.18;100.00;67318.16;5001551;28;19927;-80
2022/08/29 00:33:35;;;;;;;;;;;17.90;87.20;;;-147.18;100.00;67318.16;4997789;28;20015;-80
2022/08/29 00:36:02;;;;;;;;;;;17.90;87.20;;;-147.18;100.00;67318.16;5001004;28;20359;-80
2022/08/29 00:38:29;;;;;;;;;;;17.90;87.30;;;-147.18;100.00;67318.16;4997154;28;19925;-80
2022/08/29 00:40:57;;;;;;;;;;;17.90;87.10;;;-147.18;100.00;67318.16;5001959;28;19925;-80
2022/08/29 00:43:28;;;;;;;;;;;17.80;87.30;;;-147.18;100.00;67318.16;4993176;28;19926;-80
2022/08/29 00:46:03;;;;;;;;;;;17.80;87.40;;;-147.18;100.00;67318.16;4992533;28;19932;-80
2022/08/29 00:48:34;;;;;;;;;;;17.70;87.40;;;-147.18;100.00;67318.16;4990475;28;19926;-80
2022/08/29 00:51:03;;;;;;;;;;;17.70;87.60;;;-147.18;100.00;67318.16;5003559;28;19928;-80
2022/08/29 00:53:34;;;;;;;;;;;17.70;87.80;;;-147.18;100.00;67318.16;5012611;28;19921;-81
2022/08/29 00:56:02;;;;;;;;;;;17.70;88.10;;;-147.18;100.00;67318.16;4994160;28;20021;-80
2022/08/29 00:58:35;;;;;;;;;;;17.70;88.20;;;-147.18;100.00;67318.16;4992101;28;20480;-80
2022/08/29 01:01:02;;;;;;;;;;;17.70;88.20;;;-147.18;100.00;67318.16;4992692;28;19921;-80
2022/08/29 01:03:33;;;;;;;;;;;17.70;88.00;;;-147.18;100.00;67318.16;4993057;28;19994;-80
2022/08/29 01:06:00;;;;;;;;;;;17.60;87.90;;;-147.18;100.00;67318.16;4990700;28;20314;-80
2022/08/29 01:08:28;;;;;;;;;;;17.60;88.00;;;-147.18;100.00;67318.16;4999562;28;19929;-80
2022/08/29 01:13:39;;;;;;;;;;;17.60;88.00;;;-147.18;100.00;67318.16;4991993;28;19933;-80
2022/08/29 01:16:08;;;;;;;;;;;17.50;88.10;;;-147.18;100.00;67318.16;4994890;28;19922;-80
2022/08/29 01:18:37;;;;;;;;;;;17.40;88.10;;;-147.18;100.00;67318.16;4996612;28;19925;-80
2022/08/29 01:21:12;;;;;;;;;;;17.40;88.40;;;-147.18;100.00;67318.16;5002070;28;19925;-80
2022/08/29 01:23:44;;;;;;;;;;;17.40;88.60;;;-147.18;100.00;67318.16;5003898;28;19935;-80
2022/08/29 01:26:12;;;;;;;;;;;17.30;88.60;;;-147.18;100.00;67318.16;4996249;28;19922;-80
2022/08/29 01:28:42;;;;;;;;;;;17.30;88.70;;;-147.18;100.00;67318.16;4999874;28;19925;-80
2022/08/29 01:31:12;;;;;;;;;;;17.30;88.90;;;-147.18;100.00;67318.16;5010756;28;19922;-80
2022/08/29 01:33:43;;;;;;;;;;;17.30;89.00;;;-147.18;100.00;67318.16;4992257;28;19965;-80
2022/08/29 01:36:14;;;;;;;;;;;17.20;88.90;;;-147.18;100.00;67318.16;4991904;28;19925;-80
2022/08/29 01:38:41;;;;;;;;;;;17.20;88.90;;;-147.18;100.00;67318.16;4999443;28;19964;-80
2022/08/29 01:41:09;;;;;;;;;;;17.20;89.00;;;-147.18;100.00;67318.16;4996610;28;20443;-80
2022/08/29 01:43:41;;;;;;;;;;;17.20;89.00;;;-147.18;100.00;67318.16;4990876;28;19922;-80
2022/08/29 01:46:09;;;;;;;;;;;17.10;89.10;;;-147.18;100.00;67318.16;4991478;28;19922;-80
2022/08/29 01:48:38;;;;;;;;;;;17.10;89.40;;;-147.18;100.00;67318.16;4997893;28;20016;-80
2022/08/29 01:51:06;;;;;;;;;;;17.10;89.60;;;-147.18;100.00;67318.16;4993407;28;19949;-80
2022/08/29 01:53:33;;;;;;;;;;;17.10;89.70;;;-147.18;100.00;67318.16;4991640;28;19928;-80
2022/08/29 01:56:08;;;;;;;;;;;17.00;89.70;;;-147.18;100.00;67318.16;4991214;28;20016;-80
2022/08/29 01:58:35;;;;;;;;;;;17.00;89.80;;;-147.18;100.00;67318.16;4999416;28;20088;-80
2022/08/29 02:01:03;;;;;;;;;;;17.00;90.00;;;-147.18;100.00;67318.16;4998131;28;19922;-80
2022/08/29 02:03:30;;;;;;;;;;;17.00;90.10;;;-147.18;100.00;67318.16;5002671;28;19960;-80
2022/08/29 02:06:00;;;;;;;;;;;17.00;90.20;;;-147.18;100.00;67318.16;5002427;28;20301;-80
2022/08/29 02:08:27;;;;;;;;;;;17.00;90.30;;;-147.18;100.00;67318.16;5007786;28;19925;-80
2022/08/29 02:10:54;;;;;;;;;;;16.90;90.40;;;-147.18;100.00;67318.16;4994712;28;19928;-80
2022/08/29 02:13:23;;;;;;;;;;;16.90;90.40;;;-147.18;100.00;67318.16;4991792;28;19922;-80
2022/08/29 02:15:50;;;;;;;;;;;16.90;90.40;;;-147.18;100.00;67318.16;5013587;23;19988;-81
2022/08/29 02:18:18;;;;;;;;;;;16.90;90.50;;;-147.18;100.00;67318.16;5000430;28;19928;-82
2022/08/29 02:20:46;;;;;;;;;;;16.90;90.50;;;-147.18;100.00;67318.16;5001250;28;20386;-81
2022/08/29 02:23:13;;;;;;;;;;;16.90;90.60;;;-147.18;100.00;67318.16;5002137;28;20378;-81
2022/08/29 02:25:46;;;;;;;;;;;16.80;90.60;;;-147.18;100.00;67318.16;4992964;28;20016;-82
2022/08/29 02:28:16;;;;;;;;;;;16.80;90.80;;;-147.18;100.00;67318.16;4994143;28;20000;-81
2022/08/29 02:30:44;;;;;;;;;;;16.80;90.90;;;-147.18;100.00;67318.16;4990576;28;20012;-82
2022/08/29 02:33:12;;;;;;;;;;;16.80;91.20;;;-147.18;100.00;67318.16;4991338;28;19957;-81
2022/08/29 02:35:41;;;;;;;;;;;16.70;91.20;;;-147.18;100.00;67318.16;4987696;28;19921;-81
2022/08/29 02:38:08;;;;;;;;;;;16.80;91.20;;;-147.18;100.00;67318.16;4985525;28;19922;-82
2022/08/29 02:40:36;;;;;;;;;;;16.70;91.20;;;-147.18;100.00;67318.16;4990371;28;19929;-82
2022/08/29 02:43:03;;;;;;;;;;;16.70;91.40;;;-147.18;100.00;67318.16;4988595;28;20013;-81
2022/08/29 02:45:31;;;;;;;;;;;16.60;91.30;;;-147.18;100.00;67318.16;4990351;28;19925;-82
2022/08/29 02:47:59;;;;;;;;;;;16.70;91.70;;;-147.18;100.00;67318.16;4981118;28;19922;-81
2022/08/29 02:50:26;;;;;;;;;;;16.70;91.70;;;-147.18;100.00;67318.16;4990395;28;19930;-82
2022/08/29 02:52:55;;;;;;;;;;;16.70;91.70;;;-147.18;100.00;67318.16;4989108;28;19929;-82
2022/08/29 02:55:23;;;;;;;;;;;16.70;91.70;;;-147.18;100.00;67318.16;4977963;28;19922;-81
2022/08/29 02:57:51;;;;;;;;;;;16.70;91.90;;;-147.18;100.00;67318.16;4990025;28;19980;-83
2022/08/29 03:00:21;;;;;;;;;;;16.60;91.80;;;-147.18;100.00;67318.16;4989890;28;19976;-82
2022/08/29 03:02:49;;;;;;;;;;;16.60;92.00;;;-147.18;100.00;67318.16;4989691;28;19925;-81
2022/08/29 03:05:17;;;;;;;;;;;16.60;92.20;;;-147.18;100.00;67318.16;4983803;28;19932;-82
2022/08/29 03:07:46;;;;;;;;;;;16.60;92.20;;;-147.18;100.00;67318.16;4978069;28;19968;-82
2022/08/29 03:10:14;;;;;;;;;;;16.60;92.20;;;-147.18;100.00;67318.16;4990173;28;20334;-82
2022/08/29 03:12:41;;;;;;;;;;;16.60;92.20;;;-147.18;100.00;67318.16;4990800;28;20029;-81
2022/08/29 03:15:09;;;;;;;;;;;16.50;92.30;;;-147.18;100.00;67318.16;4983809;28;20005;-82
2022/08/29 03:17:36;;;;;;;;;;;16.60;92.40;;;-147.18;100.00;67318.16;4977103;28;20341;-82
2022/08/29 03:20:05;;;;;;;;;;;16.60;92.40;;;-147.18;100.00;67318.16;4987510;28;20012;-81
2022/08/29 03:22:33;;;;;;;;;;;16.50;92.40;;;-147.18;100.00;67318.16;4985041;28;20293;-81
2022/08/29 03:25:01;;;;;;;;;;;16.50;92.50;;;-147.18;100.00;67318.16;4989670;28;19928;-82
2022/08/29 03:27:30;;;;;;;;;;;16.50;92.20;;;-147.18;100.00;67318.16;4985427;28;19928;-81
2022/08/29 03:29:58;;;;;;;;;;;16.40;92.40;;;-147.18;100.00;67318.16;4989951;28;19922;-82
2022/08/29 03:32:25;;;;;;;;;;;16.40;92.40;;;-147.18;100.00;67318.16;4990805;28;19922;-81
2022/08/29 03:34:53;;;;;;;;;;;16.40;92.40;;;-147.18;100.00;67318.16;4989168;28;19929;-81
2022/08/29 03:37:20;;;;;;;;;;;16.40;92.60;;;-147.18;100.00;67318.16;4974779;28;19922;-81
2022/08/29 03:39:47;;;;;;;;;;;16.40;92.70;;;-147.18;100.00;67318.16;4992264;28;20428;-81
2022/08/29 03:42:14;;;;;;;;;;;16.40;92.70;;;-147.18;100.00;67318.16;4989444;28;20008;-82
2022/08/29 03:44:42;;;;;;;;;;;16.30;92.90;;;-147.18;100.00;67318.16;4989715;28;19926;-82
2022/08/29 03:47:10;;;;;;;;;;;16.30;93.00;;;-147.18;100.00;67318.16;4987182;28;20013;-82
2022/08/29 03:49:37;;;;;;;;;;;16.30;93.20;;;-147.18;100.00;67318.16;4993560;28;19925;-82
2022/08/29 03:52:05;;;;;;;;;;;16.30;93.30;;;-147.18;100.00;67318.16;4993479;28;20409;-82
2022/08/29 03:54:32;;;;;;;;;;;16.30;93.30;;;-147.18;100.00;67318.16;4993939;28;20016;-81
2022/08/29 03:56:59;;;;;;;;;;;16.20;93.10;;;-147.18;100.00;67318.16;4983966;28;20366;-82
2022/08/29 03:59:26;;;;;;;;;;;16.20;93.10;;;-147.18;100.00;67318.16;4992655;28;19935;-81
2022/08/29 04:01:56;;;;;;;;;;;16.20;93.20;;;-147.18;100.00;67318.16;4993377;28;19928;-82
2022/08/29 04:07:11;;;;;;;;;;;16.20;93.30;;;-147.18;100.00;67318.16;4979712;28;19922;-82
2022/08/29 04:09:39;;;;;;;;;;;16.20;93.30;;;-147.18;100.00;67318.16;4990728;28;20045;-82
2022/08/29 04:12:07;;;;;;;;;;;16.20;93.40;;;-147.18;100.00;67318.16;4992474;28;20441;-82
2022/08/29 04:14:34;;;;;;;;;;;16.20;93.40;;;-147.18;100.00;67318.16;4992031;28;19929;-82
2022/08/29 04:17:03;;;;;;;;;;;16.20;93.40;;;-147.18;100.00;67318.16;4981041;28;19929;-82
2022/08/29 04:19:32;;;;;;;;;;;16.20;93.50;;;-147.18;100.00;67318.16;4992962;28;20390;-82
2022/08/29 04:21:59;;;;;;;;;;;16.20;93.60;;;-147.18;100.00;67318.16;4993427;28;19921;-82
2022/08/29 04:24:26;;;;;;;;;;;16.10;93.60;;;-147.18;100.00;67318.16;4992922;28;19925;-82
2022/08/29 04:26:53;;;;;;;;;;;16.10;93.60;;;-147.18;100.00;67318.16;4983582;28;19922;-82
2022/08/29 04:29:20;;;;;;;;;;;16.10;93.50;;;-147.18;100.00;67318.16;4993361;28;20370;-82
2022/08/29 04:31:47;;;;;;;;;;;16.10;93.70;;;-147.18;100.00;67318.16;4992758;28;19932;-82
2022/08/29 04:34:15;;;;;;;;;;;16.10;93.70;;;-147.18;100.00;67318.16;4992613;28;19967;-83
2022/08/29 04:36:44;;;;;;;;;;;16.10;93.70;;;-147.18;100.00;67318.16;4987609;28;19925;-79
2022/08/29 04:39:11;;;;;;;;;;;16.00;93.70;;;-147.18;100.00;67318.16;4991461;28;19928;-87
2022/08/29 04:41:39;;;;;;;;;;;16.00;93.80;;;-147.18;100.00;67318.16;4989909;28;20001;-91
2022/08/29 04:44:07;;;;;;;;;;;16.00;93.80;;;-147.18;100.00;67318.16;4990785;28;19926;-88
2022/08/29 04:46:34;;;;;;;;;;;16.00;93.80;;;-147.18;100.00;67318.16;4988316;28;19928;-85
2022/08/29 04:49:01;;;;;;;;;;;16.00;93.90;;;-147.18;100.00;67318.16;4990447;28;19922;-86
2022/08/29 04:51:29;;;;;;;;;;;16.00;93.80;;;-147.18;100.00;67318.16;4990959;28;19921;-86
2022/08/29 04:53:56;;;;;;;;;;;16.00;94.20;;;-147.18;100.00;67318.16;4991762;28;19936;-85
2022/08/29 04:56:23;;;;;;;;;;;16.00;94.20;;;-147.18;100.00;67318.16;4989416;28;20294;-85
2022/08/29 04:58:51;;;;;;;;;;;16.00;94.20;;;-147.18;100.00;67318.16;4992979;28;19922;-85
2022/08/29 05:01:21;;;;;;;;;;;16.00;94.30;;;-147.18;100.00;67318.16;4992246;28;19925;-85
2022/08/29 05:03:48;;;;;;;;;;;16.00;94.40;;;-147.18;100.00;67318.16;4992859;28;20299;-83
2022/08/29 05:06:17;;;;;;;;;;;16.00;94.50;;;-147.18;100.00;67318.16;4983815;28;19921;-84
2022/08/29 05:08:46;;;;;;;;;;;16.00;94.70;;;-147.18;100.00;67318.16;4988003;28;19925;-83
2022/08/29 05:11:15;;;;;;;;;;;16.00;94.70;;;-147.18;100.00;67318.16;4992042;28;19933;-83
2022/08/29 05:13:42;;;;;;;;;;;16.00;94.80;;;-147.18;100.00;67318.16;4987125;28;20722;-84
2022/08/29 05:16:12;;;;;;;;;;;16.00;94.90;;;-147.18;100.00;67318.16;4984937;28;20400;-83
2022/08/29 05:18:40;;;;;;;;;;;16.00;95.00;;;-147.18;100.00;67318.16;4999413;28;20000;-84
2022/08/29 05:21:07;;;;;;;;;;;16.00;95.10;;;-147.18;100.00;67318.16;4992676;28;20403;-83
2022/08/29 05:23:34;;;;;;;;;;;16.00;95.20;;;-147.18;100.00;67318.16;4991961;28;19922;-83
2022/08/29 05:26:05;;;;;;;;;;;16.00;95.50;;;-147.18;100.00;67318.16;4989385;28;19929;-84
2022/08/29 05:28:33;;;;;;;;;;;16.00;95.70;;;-147.18;100.00;67318.16;4991285;28;19922;-85
2022/08/29 05:31:00;;;;;;;;;;;16.10;95.80;;;-147.18;100.00;67318.16;4990551;28;19921;-83
2022/08/29 05:33:27;;;;;;;;;;;16.10;96.00;;;-147.18;100.00;67318.16;4992336;28;20004;-85
2022/08/29 05:35:55;;;;;;;;;;;16.10;95.90;;;-147.18;100.00;67318.16;4987473;28;20401;-86
2022/08/29 05:38:22;;;;;;;;;;;16.10;96.00;;;-147.18;100.00;67318.16;4984631;28;19972;-86
2022/08/29 05:40:49;;;;;;;;;;;16.10;96.20;;;-147.18;100.00;67318.16;4990910;28;19972;-90
2022/08/29 05:43:17;;;;;;;;;;;16.10;96.40;;;-147.18;100.00;67318.16;4992303;28;19952;-91
2022/08/29 05:45:44;;;;;;;;;;;16.10;96.40;;;-147.18;100.00;67318.16;4977549;28;19952;-89
2022/08/29 05:48:13;;;;;;;;;;;16.10;96.50;;;-147.18;100.00;67318.16;4989673;28;19993;-92
2022/08/29 05:50:41;;;;;;;;;;;16.20;96.80;;;-147.18;100.00;67318.16;4990860;28;19922;-87
2022/08/29 05:53:08;;;;;;;;;;;16.20;96.90;;;-147.18;100.00;67318.16;4984192;28;19925;-87
2022/08/29 05:55:39;;;;;;;;;;;16.20;97.00;;;-147.18;100.00;67318.16;4987628;28;19921;-85
2022/08/29 05:58:06;;;;;;;;;;;16.30;97.20;;;-147.18;100.00;67318.16;4988236;28;20343;-81
2022/08/29 06:00:37;;;;;;;;;;;16.30;97.20;;;-147.18;100.00;67318.16;4983022;28;20390;-83
2022/08/29 06:03:04;;;;;;;;;;;16.30;97.20;;;-147.18;100.00;67318.16;4977308;28;19922;-84
2022/08/29 06:05:31;;;;;;;;;;;16.40;97.10;;;-147.18;100.00;67318.16;4985158;28;20025;-83
2022/08/29 06:07:58;;;;;;;;;;;16.40;96.80;;;-147.18;100.00;67318.16;4985233;28;19926;-83
2022/08/29 06:10:25;;;;;;;;;;;16.40;96.60;;;-147.18;100.00;67318.16;4984020;28;19922;-82
2022/08/29 06:12:52;;;;;;;;;;;16.40;96.60;;;-147.18;100.00;67318.16;4983262;28;19965;-83
2022/08/29 06:15:19;;;;;;;;;;;16.50;96.70;;;-147.18;100.00;67318.16;4980820;28;20617;-84
2022/08/29 06:17:48;;;;;;;;;;;16.50;96.60;;;-147.18;100.00;67318.16;4987636;28;19921;-84
2022/08/29 06:20:15;;;;;;;;;;;16.60;96.70;;;-147.18;100.00;67318.16;4986055;28;20355;-83
2022/08/29 06:22:42;;;;;;;;;;;16.60;96.80;;;-147.18;100.00;67318.16;4983207;28;20382;-85
2022/08/29 06:25:10;;;;;;;;;;;16.70;96.70;;;-147.18;100.00;67318.16;4986782;28;19964;-83
2022/08/29 06:27:37;;;;;;;;;;;16.80;96.50;;;-147.18;100.00;67318.16;4978379;28;19938;-85
2022/08/29 06:30:05;;;;;;;;;;;16.80;96.40;;;-147.18;100.00;67318.16;4980950;28;19926;-83
2022/08/29 06:32:32;;;;;;;;;;;16.90;96.20;;;-147.18;100.00;67318.16;4984585;28;19929;-83
2022/08/29 06:35:01;;;;;;;;;;;16.90;96.10;;;-147.18;100.00;67318.16;4977839;28;19945;-83
2022/08/29 06:37:28;;;;;;;;;;;17.00;96.30;;;-147.18;100.00;67318.16;4980570;28;20052;-83
2022/08/29 06:39:55;;;;;;;;;;;17.10;96.30;;;-147.18;100.00;67318.16;4979741;28;19922;-83
2022/08/29 06:42:23;;;;;;;;;;;17.10;95.80;;;-147.18;100.00;67318.16;4975662;28;19936;-83
2022/08/29 06:44:51;;;;;;;;;;;17.20;95.90;;;-147.18;100.00;67318.16;4972555;28;20012;-83
2022/08/29 06:47:18;;;;;;;;;;;17.30;96.00;;;-147.18;100.00;67318.16;4975955;28;19961;-83
2022/08/29 06:49:45;;;;;;;;;;;17.30;95.80;;;-147.18;100.00;67318.16;4974508;28;19929;-84
2022/08/29 06:52:14;;;;;;;;;;;17.40;95.70;;;-147.18;100.00;67318.16;4978558;28;19929;-84
2022/08/29 06:54:41;;;;;;;;;;;17.40;95.60;;;-147.18;100.00;67318.16;4979701;28;20446;-86
2022/08/29 06:57:08;;;;;;;;;;;17.50;95.40;;;-147.18;100.00;67318.16;4984056;28;19975;-85
2022/08/29 06:59:35;;;;;;;;;;;17.50;95.00;;;-147.18;100.00;67318.16;4978559;28;19929;-85
2022/08/29 07:02:02;;;;;;;;;;;17.50;95.10;;;-147.18;100.00;67318.16;4979888;28;19921;-84
2022/08/29 07:04:31;;;;;;;;;;;17.60;95.20;;;-147.18;100.00;67318.16;4977930;28;19960;-83
2022/08/29 07:06:58;;;;;;;;;;;17.60;95.40;;;-147.18;100.00;67318.16;4975526;28;19922;-84
2022/08/29 07:09:28;;;;;;;;;;;17.70;95.30;;;-147.18;100.00;67318.16;4978972;28;19926;-84
2022/08/29 07:11:55;;;;;;;;;;;17.70;95.00;;;-147.18;100.00;67318.16;4984024;28;20042;-83
2022/08/29 07:14:22;;;;;;;;;;;17.70;94.90;;;-147.18;100.00;67318.16;4987473;28;19922;-84
2022/08/29 07:16:49;;;;;;;;;;;17.80;94.80;;;-147.18;100.00;67318.16;4986208;28;19948;-84
2022/08/29 07:19:16;;;;;;;;;;;17.80;94.90;;;-147.18;100.00;67318.16;4986129;28;19928;-83
2022/08/29 07:21:43;;;;;;;;;;;17.90;94.20;;;-147.18;100.00;67318.16;4987862;28;20000;-84
2022/08/29 07:24:10;;;;;;;;;;;17.90;94.70;;;-147.18;100.00;67318.16;4988405;28;19922;-83
2022/08/29 07:26:43;;;;;;;;;;;18.00;94.10;;;-147.18;100.00;67318.16;4993592;28;19922;-84
2022/08/29 07:29:13;;;;;;;;;;;18.00;93.90;;;-147.18;100.00;67318.16;4986704;28;20021;-85
2022/08/29 07:31:40;;;;;;;;;;;18.00;93.30;;;-147.18;100.00;67318.16;4994144;28;20024;-84
2022/08/29 07:34:08;;;;;;;;;;;18.10;93.50;;;-147.18;100.00;67318.16;4990947;28;19922;-85
2022/08/29 07:36:35;;;;;;;;;;;18.20;93.60;;;-147.18;100.00;67318.16;4993298;28;19925;-84
2022/08/29 07:39:07;;;;;;;;;;;18.20;93.60;;;-147.18;100.00;67318.16;4992377;28;19928;-87
2022/08/29 07:41:34;;;;;;;;;;;18.30;92.70;;;-147.18;100.00;67318.16;4994215;28;19932;-86
2022/08/29 07:44:03;;;;;;;;;;;18.30;92.80;;;-147.18;100.00;67318.16;4986042;28;19928;-87
2022/08/29 07:46:30;;;;;;;;;;;18.40;92.50;;;-147.18;100.00;67318.16;4991004;28;20398;-86
2022/08/29 07:48:58;;;;;;;;;;;18.40;92.50;;;-147.18;100.00;67318.16;4993124;28;19922;-87
2022/08/29 07:51:26;;;;;;;;;;;18.40;92.40;;;-147.18;100.00;67318.16;4984556;28;20025;-86
2022/08/29 07:53:53;;;;;;;;;;;18.40;92.60;;;-147.18;100.00;67318.16;4990880;28;20367;-86
2022/08/29 07:56:22;;;;;;;;;;;18.50;92.00;;;-147.18;100.00;67318.16;4986686;28;19926;-86
2022/08/29 07:58:49;;;;;;;;;;;18.50;91.80;;;-147.18;100.00;67318.16;4992531;28;19926;-87
2022/08/29 08:01:18;;;;;;;;;;;18.60;91.80;;;-147.18;100.00;67318.16;4992827;28;20020;-85
2022/08/29 08:03:46;;;;;;;;;;;18.60;91.80;;;-147.18;100.00;67318.16;4993528;28;20004;-87
2022/08/29 08:06:13;;;;;;;;;;;18.60;91.60;;;-147.18;100.00;67318.16;4984906;28;19928;-87
2022/08/29 08:08:40;;;;;;;;;;;18.70;92.00;;;-147.18;100.00;67318.16;4992881;28;19925;-87
2022/08/29 08:11:08;;;;;;;;;;;18.70;91.70;;;-147.18;100.00;67318.16;4992448;28;19976;-87
2022/08/29 08:13:36;;;;;;;;;;;18.80;91.90;;;-147.18;100.00;67318.16;4991903;28;20334;-82
2022/08/29 08:16:05;;;;;;;;;;;18.80;91.60;;;-147.18;100.00;67318.16;4989053;28;19926;-85
2022/08/29 08:18:35;;;;;;;;;;;18.90;91.20;;;-147.18;100.00;67318.16;4995671;28;19922;-85
2022/08/29 08:21:02;;;;;;;;;;;19.00;91.00;;;-147.18;100.00;67318.16;4993457;28;20306;-86
2022/08/29 08:23:30;;;;;;;;;;;19.00;90.80;;;-147.18;100.00;67318.16;4994104;28;19925;-86
2022/08/29 08:25:57;;;;;;;;;;;19.10;90.30;;;-147.18;100.00;67318.16;4986906;28;19921;-86
2022/08/29 08:28:25;;;;;;;;;;;19.20;90.10;;;-147.18;100.00;67318.16;4989955;28;20000;-86
2022/08/29 08:30:52;;;;;;;;;;;19.30;89.30;;;-147.18;100.00;67318.16;4991113;28;19945;-86
2022/08/29 08:33:19;;;;;;;;;;;19.30;88.50;;;-147.18;100.00;67318.16;5005141;23;20524;-83
2022/08/29 08:35:47;;;;;;;;;;;19.30;87.50;;;-147.18;100.00;67318.16;4999788;28;20366;-85
2022/08/29 08:38:15;;;;;;;;;;;19.30;88.10;;;-147.18;100.00;67318.16;4994216;28;20012;-85
2022/08/29 08:40:45;;;;;;;;;;;19.40;89.10;;;-147.18;100.00;67318.16;5003547;28;19921;-84
2022/08/29 08:43:14;;;;;;;;;;;19.40;88.70;;;-147.18;100.00;67318.16;5003386;28;20004;-87
2022/08/29 08:45:43;;;;;;;;;;;19.40;87.40;;;-147.18;100.00;67318.16;4991219;28;19922;-86
2022/08/29 08:48:14;;;;;;;;;;;19.50;87.30;;;-147.18;100.00;67318.16;4991445;28;19926;-86
2022/08/29 08:50:45;;;;;;;;;;;19.50;87.50;;;-147.18;100.00;67318.16;4978514;28;19925;-85
2022/08/29 08:53:18;;;;;;;;;;;19.50;86.00;;;-147.18;100.00;67318.16;4981832;28;20445;-86
2022/08/29 08:55:47;;;;;;;;;;;19.50;85.70;;;-147.18;100.00;67318.16;4984193;28;20390;-85
2022/08/29 08:58:22;;;;;;;;;;;19.60;85.50;;;-147.18;100.00;67318.16;4991871;28;20008;-86
2022/08/29 09:00:55;;;;;;;;;;;19.60;86.00;;;-147.18;100.00;67318.16;4992896;28;19976;-85
2022/08/29 09:04:02;;;;;;;;;;;19.60;86.30;;;-147.18;100.00;67318.16;4989493;28;19928;-86
2022/08/29 09:06:44;;;;;;;;;;;19.70;85.30;;;-147.18;100.00;67318.16;4989525;28;20337;-90
2022/08/29 09:09:21;;;;;;;;;;;19.70;84.30;;;-147.18;100.00;67318.16;4994970;28;19921;-84
2022/08/29 09:11:56;;;;;;;;;;;19.70;84.60;;;-147.18;100.00;67318.16;4989330;28;19925;-84
2022/08/29 09:14:41;;;;;;;;;;;19.80;84.80;;;-147.18;100.00;67318.16;4988669;28;20336;-84
2022/08/29 09:17:12;;;;;;;;;;;19.80;83.30;;;-147.18;100.00;67318.16;4989561;28;19932;-84
2022/08/29 09:19:39;;;;;;;;;;;19.80;82.90;;;-147.18;100.00;67318.16;4991705;28;19929;-84
2022/08/29 09:22:09;;;;;;;;;;;19.90;82.90;;;-147.18;100.00;67318.16;4997432;28;19967;-85
2022/08/29 09:24:46;;;;;;;;;;;19.90;83.40;;;-147.18;100.00;67318.16;4984462;28;20375;-85
2022/08/29 09:27:19;;;;;;;;;;;20.00;82.60;;;-147.18;100.00;67318.16;4988843;28;20354;-87
2022/08/29 09:29:47;;;;;;;;;;;20.00;82.40;;;-147.18;100.00;67318.16;4986584;28;20005;-87
2022/08/29 09:32:15;;;;;;;;;;;20.00;81.40;;;-147.18;100.00;67318.16;4981416;28;19922;-86
2022/08/29 09:34:45;;;;;;;;;;;20.10;81.90;;;-147.18;100.00;67318.16;4976331;28;19957;-86
2022/08/29 09:37:28;;;;;;;;;;;20.10;82.60;;;-147.18;100.00;67318.16;4983428;28;19929;-86
2022/08/29 09:40:00;;;;;;;;;;;20.10;81.70;;;-147.18;100.00;67318.16;4991714;28;19926;-86
2022/08/29 09:42:33;;;;;;;;;;;20.10;81.30;;;-147.18;100.00;67318.16;4991109;28;19991;-87
2022/08/29 09:45:08;;;;;;;;;;;20.10;81.40;;;-147.18;100.00;67318.16;4979349;28;19992;-87
2022/08/29 09:47:35;;;;;;;;;;;20.20;81.40;;;-147.18;100.00;67318.16;4984226;28;19922;-86
2022/08/29 09:50:20;;;;;;;;;;;20.20;81.20;;;-147.18;100.00;67318.16;4991233;28;19968;-87
2022/08/29 09:52:52;;;;;;;;;;;20.20;82.40;;;-147.18;100.00;67318.16;4992258;28;19952;-84
2022/08/29 09:55:27;;;;;;;;;;;20.20;82.70;;;-147.18;100.00;67318.16;4989010;28;19926;-86
2022/08/29 09:57:57;;;;;;;;;;;20.30;82.20;;;-147.18;100.00;67318.16;4983732;28;19921;-86
2022/08/29 10:00:27;;;;;;;;;;;20.30;81.40;;;-147.18;100.00;67318.16;4991253;28;20470;-87
2022/08/29 10:02:56;;;;;;;;;;;20.30;81.00;;;-147.18;100.00;67318.16;4991425;28;20052;-87
2022/08/29 10:05:34;;;;;;;;;;;20.30;80.40;;;-147.18;100.00;67318.16;4990006;28;19976;-86
2022/08/29 10:08:03;;;;;;;;;;;20.30;79.80;;;-147.18;100.00;67318.16;4983457;28;19925;-86
2022/08/29 10:10:34;;;;;;;;;;;20.30;80.20;;;-147.18;100.00;67318.16;4991415;28;19957;-86
2022/08/29 10:13:07;;;;;;;;;;;20.30;80.70;;;-147.18;100.00;67318.16;4991809;28;20444;-87
2022/08/29 10:15:38;;;;;;;;;;;20.40;80.80;;;-147.18;100.00;67318.16;4989219;28;20009;-87
2022/08/29 10:18:22;;;;;;;;;;;20.40;80.40;;;-147.18;100.00;67318.16;4988142;28;19922;-87
2022/08/29 10:20:59;;;;;;;;;;;20.50;80.50;;;-147.18;100.00;67318.16;4986175;28;19922;-86
2022/08/29 10:23:31;;;;;;;;;;;20.40;78.80;;;-147.18;100.00;67318.16;5006619;28;19929;-87
2022/08/29 10:26:03;;;;;;;;;;;20.40;79.40;;;-147.18;100.00;67318.16;4988829;28;19969;-87
2022/08/29 10:28:38;;;;;;;;;;;20.40;79.40;;;-147.18;100.00;67318.16;4988577;28;19925;-85
2022/08/29 10:31:11;;;;;;;;;;;20.40;79.30;;;-147.18;100.00;67318.16;4989618;28;19929;-87
2022/08/29 10:33:54;;;;;;;;;;;20.40;79.30;;;-147.18;100.00;67318.16;4987366;28;19925;-89
2022/08/29 10:36:26;;;;;;;;;;;20.40;79.40;;;-147.18;100.00;67318.16;4989393;28;19926;-87
2022/08/29 10:39:00;;;;;;;;;;;20.40;79.10;;;-147.18;100.00;67318.16;4990788;28;19957;-85
2022/08/29 10:41:33;;;;;;;;;;;20.40;79.50;;;-147.18;100.00;67318.16;4993735;28;20302;-84
2022/08/29 10:44:16;;;;;;;;;;;20.50;79.10;;;-147.18;100.00;67318.16;5004785;28;20379;-84
2022/08/29 10:47:26;;;;;;;;;;;20.40;79.30;;;-147.18;100.00;67318.16;4989997;28;20027;-84
2022/08/29 10:50:14;;;;;;;;;;;20.40;78.00;;;-147.18;100.00;67318.16;4955161;28;20406;-88
2022/08/29 10:52:47;;;;;;;;;;;20.50;78.60;;;-147.18;100.00;67318.16;4989200;28;19933;-87
2022/08/29 10:55:19;;;;;;;;;;;20.50;78.30;;;-147.18;100.00;67318.16;4988667;28;19922;-88
2022/08/29 10:57:57;;;;;;;;;;;20.50;78.10;;;-147.18;100.00;67318.16;4990113;28;20003;-87
2022/08/29 11:00:28;;;;;;;;;;;20.60;78.20;;;-147.18;100.00;67318.16;4982471;28;19968;-85
2022/08/29 11:03:01;;;;;;;;;;;20.60;78.80;;;-147.18;100.00;67318.16;4990685;28;20016;-83
2022/08/29 11:05:33;;;;;;;;;;;20.60;78.70;;;-147.18;100.00;67318.16;4984035;28;19945;-85
2022/08/29 11:08:04;;;;;;;;;;;20.60;78.60;;;-147.18;100.00;67318.16;4988120;28;19921;-85
2022/08/29 11:10:39;;;;;;;;;;;20.60;78.40;;;-147.18;100.00;67318.16;5006319;28;19926;-87